Port Hardy, Canada
Current Conditions -  °F | °C
As of 12:00 AM on Friday 24 Oct 2014 (Local Time) from CYZT Reporting Station
Scattered Clouds Scattered Clouds  
Wind Chill: 39°   Ceiling: Unl
Heat Index: 39°   Visibility: 15mi
Dew Point: 39°   Wind: 2mph
Humidity: 100%   Direction: 170°S
Pressure: 29.92"   Gusts: NA
Location:  50.72°N, 127.5°W
Report Text: CYZT 240700Z 17002KT 15SM FEW070 SCT220 04/04 A2992 RMK AC2CI1 OCNL DIST LGTIC S SLP132
Loading
Personal Weather Stations






























Interactive Weather Map
Tropical Storm Tracking
New forecast layout! Learn more

10-Day Weather Forecast

Advertisements
Track Severe Weather on mobile